Schedule Details


Flight Number: CTN439
Departure: Munich (EDDM) at 19:20
Arrival: Kastela (LDSP) at 20:50
Route: ROTAX L603 LATLO DCT NIPEL DCT SABAD L862 OKLAX

Weather Information
EDDM 220420Z 36001KT CAVOK 03/M02 Q1013 NOSIG
LDSP 220430Z 02004KT CAVOK 12/08 Q1018 NOSIG
Schedule Frequency

Route Map